Time;durP1;ratioP1;P1;durP2;ratioP2;P2;SDS_P1;SDS_P2;PMS_P1;PMS_P2;Temp;Humidity;BMP_temperature;BMP_pressure;BME280_temperature;BME280_humidity;BME280_pressure;Samples;Min_cycle;Max_cycle;Signal;HPM_P1;HPM_P2
2022/09/10 00:01:34;;;;;;;4.43;0.28;;;20.10;62.00;;;;;;5052305;28;20045;-68
2022/09/10 00:04:03;;;;;;;3.13;0.20;;;20.10;61.90;;;;;;5050261;28;20037;-68
2022/09/10 00:06:34;;;;;;;3.58;0.60;;;20.10;62.00;;;;;;5051090;28;20085;-68
2022/09/10 00:09:01;;;;;;;1.08;0.10;;;20.10;61.90;;;;;;5053200;28;20311;-67
2022/09/10 00:11:30;;;;;;;2.13;0.20;;;20.10;62.00;;;;;;5050475;28;20044;-67
2022/09/10 00:13:58;;;;;;;2.92;0.10;;;20.00;62.10;;;;;;5055127;28;20127;-67
2022/09/10 00:16:26;;;;;;;1.38;0.10;;;20.00;62.10;;;;;;5054784;28;20033;-68
2022/09/10 00:18:53;;;;;;;1.00;0.10;;;20.00;62.10;;;;;;5051125;28;20044;-68
2022/09/10 00:21:21;;;;;;;4.22;0.17;;;20.10;62.20;;;;;;5049695;28;20041;-67
2022/09/10 00:23:49;;;;;;;4.85;0.25;;;20.10;62.20;;;;;;5052073;28;20046;-67
2022/09/10 00:26:20;;;;;;;3.03;0.10;;;20.00;62.20;;;;;;5055178;28;20773;-67
2022/09/10 00:28:49;;;;;;;2.33;0.20;;;20.00;62.20;;;;;;5049180;28;20055;-67
2022/09/10 00:31:17;;;;;;;3.20;0.25;;;20.00;62.20;;;;;;5053459;28;20044;-66
2022/09/10 00:33:44;;;;;;;5.13;0.20;;;20.00;62.20;;;;;;5053195;28;20115;-67
2022/09/10 00:36:16;;;;;;;6.57;1.30;;;20.00;62.20;;;;;;5055412;28;20107;-67
2022/09/10 00:38:43;;;;;;;2.33;0.50;;;20.00;62.20;;;;;;5027007;28;20045;-67
2022/09/10 00:41:11;;;;;;;3.13;0.50;;;20.10;62.20;;;;;;5059215;28;20040;-69
2022/09/10 00:43:49;;;;;;;2.00;0.20;;;20.00;62.20;;;;;;5028691;28;20099;-70
2022/09/10 00:46:24;;;;;;;3.92;0.30;;;20.10;62.20;;;;;;5056810;28;20091;-70
2022/09/10 00:48:51;;;;;;;2.80;0.10;;;20.00;62.20;;;;;;5051813;28;20071;-69
2022/09/10 00:51:19;;;;;;;3.83;0.10;;;20.00;62.10;;;;;;5030436;28;20430;-69
2022/09/10 00:53:46;;;;;;;2.60;0.25;;;20.00;62.10;;;;;;5052841;28;20063;-69
2022/09/10 00:56:14;;;;;;;3.55;0.30;;;20.00;62.10;;;;;;5057036;28;20134;-69
2022/09/10 00:58:42;;;;;;;2.70;0.40;;;20.00;62.10;;;;;;5040002;28;20441;-69
2022/09/10 01:01:12;;;;;;;6.53;1.17;;;20.00;62.20;;;;;;5053917;28;20151;-68
2022/09/10 01:03:40;;;;;;;1.02;0.30;;;20.00;62.20;;;;;;5054371;28;20107;-68
2022/09/10 01:06:08;;;;;;;5.60;0.20;;;20.00;62.20;;;;;;5018072;28;20393;-68
2022/09/10 01:08:35;;;;;;;1.65;0.17;;;20.00;62.20;;;;;;5035017;28;20045;-68
2022/09/10 01:11:11;;;;;;;3.28;0.10;;;20.00;62.30;;;;;;5056026;28;20045;-67
2022/09/10 01:13:51;;;;;;;3.10;0.20;;;20.00;62.30;;;;;;5052990;28;20072;-66
2022/09/10 01:16:30;;;;;;;1.25;0.10;;;19.90;62.40;;;;;;5040987;28;20142;-66
2022/09/10 01:19:08;;;;;;;1.75;0.17;;;19.90;62.50;;;;;;5035564;28;20048;-67
2022/09/10 01:21:43;;;;;;;3.85;0.15;;;19.90;62.50;;;;;;5039433;28;20041;-66
2022/09/10 01:24:43;;;;;;;1.85;0.73;;;19.90;62.60;;;;;;5035646;28;20045;-69
2022/09/10 01:27:37;;;;;;;2.20;0.10;;;19.90;62.70;;;;;;5049722;28;20041;-70
2022/09/10 01:30:08;;;;;;;6.53;0.43;;;19.80;62.70;;;;;;5041083;28;20044;-69
2022/09/10 01:32:52;;;;;;;3.25;0.10;;;19.80;62.80;;;;;;5040282;28;20045;-66
2022/09/10 01:35:26;;;;;;;2.38;0.52;;;19.80;62.90;;;;;;5040896;28;20041;-67
2022/09/10 01:37:58;;;;;;;1.38;0.10;;;19.80;62.90;;;;;;5022566;28;20528;-69
2022/09/10 01:40:28;;;;;;;3.30;0.32;;;19.80;62.90;;;;;;5026653;28;20038;-68
2022/09/10 01:43:03;;;;;;;2.55;0.10;;;19.80;63.00;;;;;;5034190;28;20052;-67
2022/09/10 01:45:36;;;;;;;1.65;0.57;;;19.70;62.90;;;;;;5052215;28;20056;-69
2022/09/10 01:48:21;;;;;;;6.03;0.95;;;19.70;63.00;;;;;;5022917;28;20042;-68
2022/09/10 01:51:03;;;;;;;1.20;0.10;;;19.70;63.00;;;;;;5032441;28;20080;-68
2022/09/10 01:53:54;;;;;;;4.13;0.45;;;19.70;63.00;;;;;;5028541;28;20512;-68
2022/09/10 01:56:34;;;;;;;2.47;0.50;;;19.70;63.00;;;;;;5032354;28;20136;-69
2022/09/10 01:59:11;;;;;;;2.58;0.10;;;19.70;63.10;;;;;;5035271;28;20048;-69
2022/09/10 02:01:47;;;;;;;6.00;0.82;;;19.70;63.10;;;;;;5040082;28;20041;-69
2022/09/10 02:04:15;;;;;;;8.90;0.40;;;19.70;63.10;;;;;;5035253;28;20037;-69
2022/09/10 02:06:46;;;;;;;0.20;0.10;;;19.70;63.20;;;;;;5057418;28;20053;-69
2022/09/10 02:09:15;;;;;;;4.95;0.30;;;19.70;63.10;;;;;;5034143;28;20099;-69
2022/09/10 02:11:47;;;;;;;5.38;0.35;;;19.70;63.60;;;;;;5025750;28;20049;-69
2022/09/10 02:14:26;;;;;;;0.47;0.00;;;19.70;63.10;;;;;;5018058;28;20052;-69
2022/09/10 02:17:19;;;;;;;8.68;0.47;;;19.80;63.10;;;;;;5056745;28;20041;-68
2022/09/10 02:19:50;;;;;;;4.88;0.73;;;19.80;63.10;;;;;;5034635;28;20041;-67
2022/09/10 02:22:18;;;;;;;4.28;0.40;;;19.70;63.00;;;;;;5054474;28;20049;-68
2022/09/10 02:24:45;;;;;;;5.35;0.20;;;19.80;63.00;;;;;;5051749;28;20509;-68
2022/09/10 02:27:12;;;;;;;4.78;0.68;;;19.80;62.90;;;;;;5054557;28;20045;-68
2022/09/10 02:29:41;;;;;;;5.35;0.40;;;19.80;62.90;;;;;;5036290;28;20129;-69
2022/09/10 02:32:09;;;;;;;4.13;0.45;;;19.80;62.80;;;;;;5038935;28;20032;-68
2022/09/10 02:34:38;;;;;;;3.15;0.20;;;19.80;62.90;;;;;;5027446;28;20049;-67
2022/09/10 02:37:05;;;;;;;7.95;0.20;;;19.80;62.90;;;;;;5054447;28;20045;-69
2022/09/10 02:39:34;;;;;;;8.27;0.50;;;19.80;63.40;;;;;;5028694;28;20041;-68
2022/09/10 02:42:01;;;;;;;7.53;0.30;;;19.80;62.90;;;;;;5055062;28;20033;-68
2022/09/10 02:44:30;;;;;;;5.90;0.60;;;19.80;62.90;;;;;;5032626;28;20571;-69
2022/09/10 02:46:58;;;;;;;2.45;0.10;;;19.80;62.90;;;;;;5040219;28;20040;-69
2022/09/10 02:49:25;;;;;;;2.80;0.10;;;19.80;62.90;;;;;;5030455;28;20049;-69
2022/09/10 02:51:53;;;;;;;3.10;0.80;;;19.70;62.90;;;;;;5048930;28;20087;-68
2022/09/10 02:54:20;;;;;;;4.28;0.20;;;19.80;63.00;;;;;;5051650;28;20051;-68
2022/09/10 02:56:48;;;;;;;3.80;0.20;;;19.80;62.90;;;;;;5035745;28;20462;-69
2022/09/10 02:59:16;;;;;;;6.10;0.75;;;19.80;62.90;;;;;;5039055;28;20041;-69
2022/09/10 03:01:44;;;;;;;4.47;0.10;;;19.80;62.90;;;;;;5037963;28;20037;-69
2022/09/10 03:04:12;;;;;;;2.88;0.20;;;19.80;62.90;;;;;;5054682;28;20124;-68
2022/09/10 03:06:39;;;;;;;5.20;0.95;;;19.80;62.90;;;;;;5030364;28;20045;-68
2022/09/10 03:09:07;;;;;;;2.42;0.68;;;19.80;62.90;;;;;;5024344;28;20048;-67
2022/09/10 03:11:39;;;;;;;5.25;0.20;;;19.80;62.90;;;;;;5052885;28;20041;-68
2022/09/10 03:14:07;;;;;;;5.47;0.80;;;19.80;62.90;;;;;;5009293;28;20223;-69
2022/09/10 03:16:34;;;;;;;3.90;0.10;;;19.80;62.80;;;;;;5034978;28;20068;-69
2022/09/10 03:19:03;;;;;;;1.10;0.00;;;19.80;62.80;;;;;;5033660;28;20148;-69
2022/09/10 03:21:33;;;;;;;4.50;0.13;;;19.80;62.80;;;;;;5040529;28;20045;-68
2022/09/10 03:24:00;;;;;;;3.90;0.30;;;19.80;62.80;;;;;;5055571;28;20037;-70
2022/09/10 03:26:29;;;;;;;6.75;0.52;;;19.80;62.80;;;;;;5043621;28;20086;-69
2022/09/10 03:28:57;;;;;;;4.80;0.10;;;19.80;62.90;;;;;;5053299;28;20044;-69
2022/09/10 03:31:26;;;;;;;1.88;0.45;;;19.80;62.90;;;;;;5045166;28;20029;-69
2022/09/10 03:33:54;;;;;;;1.92;0.10;;;19.80;62.90;;;;;;5026482;28;20037;-69
2022/09/10 03:36:21;;;;;;;10.35;0.93;;;19.80;62.90;;;;;;5041756;28;20472;-71
2022/09/10 03:38:51;;;;;;;3.85;1.10;;;19.80;62.80;;;;;;5028676;28;20037;-70
2022/09/10 03:41:18;;;;;;;3.35;0.45;;;19.80;62.80;;;;;;5053678;28;20037;-70
2022/09/10 03:43:46;;;;;;;7.78;1.38;;;19.80;62.80;;;;;;5035022;28;20116;-69
2022/09/10 03:46:13;;;;;;;3.22;1.20;;;19.80;62.70;;;;;;5053710;28;20048;-69
2022/09/10 03:48:43;;;;;;;3.78;1.27;;;19.80;62.80;;;;;;5050397;28;20047;-70
2022/09/10 03:51:10;;;;;;;3.03;0.10;;;19.80;62.80;;;;;;5035485;28;20068;-70
2022/09/10 03:53:38;;;;;;;3.97;0.10;;;19.80;62.70;;;;;;5036823;28;20589;-70
2022/09/10 03:56:07;;;;;;;5.63;0.70;;;19.80;62.70;;;;;;5036417;28;20045;-67
2022/09/10 03:58:35;;;;;;;7.05;0.57;;;19.80;62.60;;;;;;5053166;28;20083;-68
2022/09/10 04:01:03;;;;;;;6.57;0.28;;;19.80;62.60;;;;;;5050704;28;20044;-68
2022/09/10 04:03:31;;;;;;;3.25;0.20;;;19.80;62.70;;;;;;5041548;28;20045;-68
2022/09/10 04:05:58;;;;;;;3.72;0.40;;;19.80;62.80;;;;;;5052519;28;20505;-67
2022/09/10 04:08:25;;;;;;;6.78;0.43;;;19.80;62.80;;;;;;5038114;28;20132;-67
2022/09/10 04:10:55;;;;;;;0.82;0.22;;;19.90;62.90;;;;;;5035541;28;20108;-67
2022/09/10 04:13:24;;;;;;;6.28;0.28;;;19.80;62.90;;;;;;5038402;28;20114;-67
2022/09/10 04:15:52;;;;;;;4.35;0.20;;;19.80;62.90;;;;;;5052520;28;20114;-69
2022/09/10 04:18:19;;;;;;;6.22;0.30;;;19.80;63.00;;;;;;5041108;28;20769;-68
2022/09/10 04:20:48;;;;;;;7.13;0.57;;;19.80;62.90;;;;;;5037755;28;20041;-69
2022/09/10 04:23:16;;;;;;;0.90;0.13;;;19.80;63.00;;;;;;5030147;28;20422;-69
2022/09/10 04:25:43;;;;;;;3.85;1.23;;;19.90;63.00;;;;;;5035959;28;20051;-66
2022/09/10 04:28:10;;;;;;;4.07;0.20;;;19.90;63.10;;;;;;5034122;28;20119;-67
2022/09/10 04:30:39;;;;;;;0.82;0.10;;;19.90;63.00;;;;;;5056655;28;20049;-51
2022/09/10 04:33:07;;;;;;;3.72;0.85;;;19.90;63.20;;;;;;5050873;28;20041;-54
2022/09/10 04:35:34;;;;;;;5.18;0.35;;;19.90;63.20;;;;;;5034731;28;20040;-53
2022/09/10 04:38:04;;;;;;;5.68;0.17;;;19.90;63.20;;;;;;5032520;28;20033;-51
2022/09/10 04:40:31;;;;;;;3.75;0.30;;;19.90;63.30;;;;;;5049415;28;20049;-50
2022/09/10 04:42:58;;;;;;;3.58;0.10;;;19.90;63.20;;;;;;5030584;28;20049;-53
2022/09/10 04:45:25;;;;;;;11.55;0.93;;;19.90;64.00;;;;;;5033432;28;20059;-58
2022/09/10 04:47:54;;;;;;;5.05;0.30;;;20.00;64.90;;;;;;5033274;28;20125;-59
2022/09/10 04:50:22;;;;;;;2.88;0.98;;;20.20;65.60;;;;;;5054083;28;20841;-58
2022/09/10 04:53:16;;;;;;;5.70;0.32;;;20.50;65.90;;;;;;5044184;28;20521;-57
2022/09/10 04:55:45;;;;;;;9.73;0.28;;;20.80;66.00;;;;;;5035950;28;20566;-58
2022/09/10 04:58:13;;;;;;;10.45;0.10;;;21.00;66.00;;;;;;5036514;28;20524;-55
2022/09/10 05:00:42;;;;;;;2.80;0.57;;;21.30;65.90;;;;;;5032700;28;20053;-56
2022/09/10 05:03:12;;;;;;;2.85;0.20;;;21.60;65.70;;;;;;5055860;28;20044;-56
2022/09/10 05:05:42;;;;;;;3.85;0.22;;;21.80;65.40;;;;;;5032213;28;20037;-58
2022/09/10 05:08:09;;;;;;;1.20;0.10;;;22.00;65.00;;;;;;5054170;28;20044;-58
2022/09/10 05:10:37;;;;;;;2.97;0.40;;;22.30;64.70;;;;;;5033299;28;20049;-58
2022/09/10 05:13:06;;;;;;;4.57;1.05;;;22.50;64.50;;;;;;5036773;28;20421;-58
2022/09/10 05:15:34;;;;;;;1.40;0.98;;;22.70;64.10;;;;;;5050743;28;20052;-58
2022/09/10 05:18:03;;;;;;;8.20;0.20;;;22.90;63.90;;;;;;5026421;28;20061;-57
2022/09/10 05:20:33;;;;;;;4.00;0.50;;;23.10;63.70;;;;;;5033747;28;20041;-59
2022/09/10 05:23:00;;;;;;;3.13;0.20;;;23.20;63.30;;;;;;5034683;28;20063;-56
2022/09/10 05:25:27;;;;;;;1.80;0.10;;;23.40;63.10;;;;;;5049875;28;20200;-60
2022/09/10 05:27:54;;;;;;;2.33;0.20;;;23.50;62.80;;;;;;5030918;28;20037;-62
2022/09/10 05:30:23;;;;;;;2.50;0.10;;;23.70;62.50;;;;;;5050789;28;20064;-61
2022/09/10 05:32:52;;;;;;;2.97;0.10;;;23.90;62.30;;;;;;5035113;28;20037;-60
2022/09/10 05:35:20;;;;;;;1.02;0.10;;;23.90;61.90;;;;;;5031134;28;20045;-56
2022/09/10 05:37:49;;;;;;;1.27;0.65;;;24.10;61.70;;;;;;5034128;28;20509;-61
2022/09/10 05:40:17;;;;;;;4.65;0.20;;;24.20;61.40;;;;;;5031996;28;20567;-61
2022/09/10 05:42:44;;;;;;;1.98;0.30;;;24.30;61.20;;;;;;5025964;28;20071;-63
2022/09/10 05:45:11;;;;;;;0.93;0.10;;;24.50;61.00;;;;;;5031222;28;20048;-53
2022/09/10 05:47:38;;;;;;;2.65;0.20;;;24.50;60.70;;;;;;5047252;28;20144;-62
2022/09/10 05:50:07;;;;;;;0.68;0.10;;;24.60;60.50;;;;;;5039968;28;20045;-57
2022/09/10 05:52:35;;;;;;;1.48;0.10;;;24.70;60.30;;;;;;5029300;28;20543;-53
2022/09/10 05:55:08;;;;;;;1.77;0.10;;;24.80;60.10;;;;;;5031135;28;20771;-58
2022/09/10 05:57:35;;;;;;;0.52;0.40;;;24.90;59.90;;;;;;5049762;28;20049;-53
2022/09/10 06:00:02;;;;;;;0.77;0.10;;;25.00;59.70;;;;;;5031277;28;20468;-54
2022/09/10 06:02:42;;;;;;;1.10;0.20;;;25.10;59.60;;;;;;5047128;28;20056;-53
2022/09/10 06:05:23;;;;;;;2.60;0.25;;;25.20;59.50;;;;;;5032716;28;20401;-52
2022/09/10 06:07:51;;;;;;;0.73;0.10;;;25.20;59.20;;;;;;5031396;28;20475;-54
2022/09/10 06:10:19;;;;;;;0.80;0.65;;;25.30;59.10;;;;;;5031650;28;20509;-51
2022/09/10 06:12:51;;;;;;;1.08;0.08;;;25.40;59.00;;;;;;5049598;28;20052;-49
2022/09/10 06:15:20;;;;;;;3.20;0.10;;;25.40;58.80;;;;;;5030696;28;20037;-55
2022/09/10 06:17:48;;;;;;;1.30;0.20;;;25.50;58.70;;;;;;5031298;28;20045;-56
2022/09/10 06:20:16;;;;;;;1.20;0.30;;;25.50;58.60;;;;;;5031320;28;20098;-54
2022/09/10 06:22:45;;;;;;;4.13;1.40;;;25.60;58.50;;;;;;5032107;28;20133;-51
2022/09/10 06:25:13;;;;;;;1.67;0.10;;;25.60;58.20;;;;;;5048702;28;20120;-52
2022/09/10 06:27:43;;;;;;;1.55;0.10;;;25.70;58.00;;;;;;5031078;28;20048;-52
2022/09/10 06:30:11;;;;;;;1.98;0.28;;;25.70;57.60;;;;;;5036992;28;20049;-55
2022/09/10 06:32:41;;;;;;;2.95;0.10;;;25.70;57.20;;;;;;5030789;28;20583;-51
2022/09/10 06:35:09;;;;;;;2.13;0.10;;;25.80;56.80;;;;;;5031288;28;20152;-55
2022/09/10 06:37:37;;;;;;;2.60;0.32;;;25.80;56.60;;;;;;5030994;28;20118;-54
2022/09/10 06:40:09;;;;;;;2.10;0.10;;;25.80;56.30;;;;;;5017885;28;20094;-55
2022/09/10 06:42:36;;;;;;;8.85;0.20;;;25.80;56.00;;;;;;5040193;28;20048;-53
2022/09/10 06:45:14;;;;;;;2.95;0.20;;;25.80;55.70;;;;;;5048820;28;20045;-53
2022/09/10 06:48:09;;;;;;;2.77;0.60;;;25.90;55.50;;;;;;5031067;28;20485;-54
2022/09/10 06:50:53;;;;;;;2.03;0.10;;;25.80;55.20;;;;;;5030291;28;20048;-55
2022/09/10 06:53:24;;;;;;;1.13;0.30;;;25.90;54.90;;;;;;5024547;28;20049;-52
2022/09/10 06:55:52;;;;;;;4.93;0.40;;;25.90;54.70;;;;;;5054122;28;20041;-53
2022/09/10 06:58:21;;;;;;;3.83;0.10;;;25.90;54.50;;;;;;5030135;28;20737;-54
2022/09/10 07:00:50;;;;;;;3.30;0.10;;;25.90;54.30;;;;;;5048178;28;20501;-53
2022/09/10 07:03:20;;;;;;;2.92;0.60;;;25.90;54.10;;;;;;5033855;28;20069;-55
2022/09/10 07:05:52;;;;;;;1.38;0.15;;;25.90;53.80;;;;;;5030944;28;20067;-51
2022/09/10 07:08:21;;;;;;;3.45;0.28;;;25.90;53.70;;;;;;5017738;28;20398;-51
2022/09/10 07:10:52;;;;;;;2.35;0.10;;;25.90;53.50;;;;;;5017576;28;20124;-54
2022/09/10 07:13:20;;;;;;;2.30;0.22;;;25.90;53.40;;;;;;5030514;28;20513;-54
2022/09/10 07:15:48;;;;;;;1.02;0.30;;;25.90;53.20;;;;;;5045198;28;20135;-54
2022/09/10 07:18:17;;;;;;;2.15;0.10;;;25.90;53.10;;;;;;5027612;28;20045;-55
2022/09/10 07:20:46;;;;;;;1.45;0.10;;;25.90;52.90;;;;;;5034095;28;20128;-54
2022/09/10 07:23:16;;;;;;;2.50;0.10;;;25.90;52.80;;;;;;5048284;28;20076;-55
2022/09/10 07:25:43;;;;;;;1.30;0.10;;;25.90;52.70;;;;;;5049450;28;20037;-56
2022/09/10 07:28:22;;;;;;;1.95;0.10;;;25.90;52.60;;;;;;5045978;28;20037;-52
2022/09/10 07:30:51;;;;;;;0.63;0.03;;;25.90;52.50;;;;;;5049787;28;20394;-54
2022/09/10 07:33:19;;;;;;;1.10;0.30;;;25.90;52.40;;;;;;5017255;28;20136;-53
2022/09/10 07:35:46;;;;;;;1.67;0.20;;;25.90;52.30;;;;;;5030251;28;20055;-55
2022/09/10 07:38:15;;;;;;;2.17;0.10;;;25.90;52.20;;;;;;5023472;28;20465;-54
2022/09/10 07:40:44;;;;;;;1.52;0.15;;;25.90;52.10;;;;;;5017311;28;20045;-53
2022/09/10 07:43:11;;;;;;;0.95;0.20;;;25.90;52.00;;;;;;5032838;28;20072;-50
2022/09/10 07:45:40;;;;;;;1.30;0.10;;;25.90;51.90;;;;;;5017548;28;20045;-56
2022/09/10 07:48:12;;;;;;;3.67;0.10;;;25.90;51.80;;;;;;5017394;28;20045;-56
2022/09/10 07:50:39;;;;;;;0.98;0.10;;;25.90;51.80;;;;;;5036495;28;20067;-53
2022/09/10 07:53:06;;;;;;;1.05;0.43;;;25.90;51.80;;;;;;5030453;28;20405;-53
2022/09/10 07:55:35;;;;;;;3.25;0.10;;;25.90;51.70;;;;;;5030365;28;20512;-52
2022/09/10 07:58:02;;;;;;;0.93;0.10;;;25.80;51.60;;;;;;5032268;28;20064;-52
2022/09/10 08:00:30;;;;;;;0.35;0.05;;;25.80;51.60;;;;;;5023495;28;20134;-56
2022/09/10 08:03:01;;;;;;;1.75;0.10;;;25.80;52.10;;;;;;5029302;28;20041;-53
2022/09/10 08:05:31;;;;;;;3.20;0.10;;;25.80;51.50;;;;;;5025688;28;20073;-56
2022/09/10 08:08:00;;;;;;;0.63;0.50;;;25.90;51.50;;;;;;5027609;28;20030;-56
2022/09/10 08:10:28;;;;;;;1.63;0.15;;;25.80;51.40;;;;;;5013117;28;20081;-55
2022/09/10 08:12:56;;;;;;;2.42;0.30;;;25.80;51.40;;;;;;5029389;28;20037;-56
2022/09/10 08:15:23;;;;;;;0.60;0.10;;;25.80;51.40;;;;;;5012915;28;20072;-57
2022/09/10 08:17:52;;;;;;;1.98;0.10;;;25.80;51.40;;;;;;5021172;28;20095;-56
2022/09/10 08:20:25;;;;;;;1.05;0.40;;;25.80;51.30;;;;;;5029892;28;20531;-56
2022/09/10 08:22:57;;;;;;;1.42;0.10;;;25.80;51.30;;;;;;5011949;28;20099;-56
2022/09/10 08:25:24;;;;;;;1.48;0.17;;;25.80;51.20;;;;;;5029569;28;20043;-56
2022/09/10 08:27:53;;;;;;;2.38;0.10;;;25.80;51.20;;;;;;5029340;28;20079;-56
2022/09/10 08:30:20;;;;;;;3.15;0.10;;;25.70;51.10;;;;;;5029732;28;20056;-54
2022/09/10 08:32:47;;;;;;;2.05;0.43;;;25.80;51.20;;;;;;5011291;28;20049;-57
2022/09/10 08:35:15;;;;;;;0.82;0.10;;;25.70;51.00;;;;;;5028707;28;20053;-56
2022/09/10 08:37:42;;;;;;;0.63;0.05;;;25.70;51.00;;;;;;5047519;28;20600;-53
2022/09/10 08:40:13;;;;;;;1.58;0.10;;;25.70;50.90;;;;;;5011151;28;20127;-56
2022/09/10 08:42:45;;;;;;;3.97;0.40;;;25.70;50.90;;;;;;5026152;28;20041;-55
2022/09/10 08:45:16;;;;;;;1.88;0.10;;;25.70;50.90;;;;;;5029516;28;20126;-55
2022/09/10 08:47:56;;;;;;;1.20;0.10;;;25.70;50.90;;;;;;5023277;28;20044;-54
2022/09/10 08:50:31;;;;;;;2.90;0.43;;;25.70;50.80;;;;;;5042512;28;20049;-53
2022/09/10 08:53:07;;;;;;;1.52;0.20;;;25.70;50.80;;;;;;5033764;28;20562;-56
2022/09/10 08:55:40;;;;;;;3.08;0.30;;;25.70;50.80;;;;;;5047004;28;20425;-55
2022/09/10 08:58:13;;;;;;;2.15;0.10;;;25.70;50.90;;;;;;5029213;28;20036;-55
2022/09/10 09:00:44;;;;;;;6.00;0.35;;;25.70;50.80;;;;;;5018788;28;20045;-56
2022/09/10 09:03:21;;;;;;;2.53;0.57;;;25.70;50.80;;;;;;5029275;28;20045;-52
2022/09/10 09:05:52;;;;;;;2.53;0.20;;;25.70;50.80;;;;;;5010341;28;20518;-57
2022/09/10 09:08:24;;;;;;;2.08;0.20;;;25.70;50.60;;;;;;5016264;28;20057;-51
2022/09/10 09:11:03;;;;;;;2.90;0.22;;;25.70;50.70;;;;;;5016691;28;20084;-54
2022/09/10 09:14:01;;;;;;;3.05;0.10;;;25.70;50.70;;;;;;5015863;28;20056;-51
2022/09/10 09:16:54;;;;;;;2.45;0.20;;;25.70;50.60;;;;;;5033011;28;20057;-54
2022/09/10 09:19:31;;;;;;;3.00;0.20;;;25.70;50.60;;;;;;5052449;28;20049;-55
2022/09/10 09:22:07;;;;;;;1.77;0.10;;;25.70;50.60;;;;;;5032793;28;20772;-54
2022/09/10 09:24:45;;;;;;;1.13;0.85;;;25.70;50.60;;;;;;5019409;28;20070;-54
2022/09/10 09:27:18;;;;;;;3.25;0.32;;;25.70;50.60;;;;;;5026836;28;20040;-54
2022/09/10 09:29:51;;;;;;;3.65;0.45;;;25.70;50.60;;;;;;5037248;28;20045;-56
2022/09/10 09:32:21;;;;;;;3.20;0.20;;;25.70;50.60;;;;;;5025314;28;20053;-55
2022/09/10 09:34:52;;;;;;;4.25;0.40;;;25.70;50.60;;;;;;5025668;28;20092;-55
2022/09/10 09:37:23;;;;;;;1.60;0.10;;;25.70;50.60;;;;;;5019532;28;20053;-56
2022/09/10 09:40:03;;;;;;;2.03;0.38;;;25.70;50.60;;;;;;5019022;28;20477;-56
2022/09/10 09:42:40;;;;;;;1.98;0.20;;;25.70;50.60;;;;;;5031752;28;20045;-54
2022/09/10 09:45:18;;;;;;;3.15;0.40;;;25.70;50.60;;;;;;5022684;28;20056;-54
2022/09/10 09:47:48;;;;;;;4.70;0.43;;;25.70;50.70;;;;;;5044896;28;20417;-57
2022/09/10 09:50:17;;;;;;;2.33;0.80;;;25.70;50.70;;;;;;5031927;28;20033;-55
2022/09/10 09:52:44;;;;;;;2.70;0.43;;;25.60;50.70;;;;;;5049780;28;20052;-55
2022/09/10 09:55:21;;;;;;;1.40;0.35;;;25.70;50.80;;;;;;5050203;28;20063;-56
2022/09/10 09:57:57;;;;;;;3.50;0.80;;;25.70;50.80;;;;;;5049519;28;20064;-56
2022/09/10 10:00:35;;;;;;;1.85;0.57;;;25.70;51.50;;;;;;5049372;28;20037;-55
2022/09/10 10:03:18;;;;;;;2.78;0.90;;;25.70;50.90;;;;;;5048598;28;20091;-54
2022/09/10 10:05:45;;;;;;;1.00;0.30;;;25.70;50.90;;;;;;5050715;28;20075;-55
2022/09/10 10:08:30;;;;;;;0.68;0.17;;;25.60;50.90;;;;;;5050013;28;20122;-56
2022/09/10 10:10:58;;;;;;;1.25;0.30;;;25.70;50.90;;;;;;5049651;28;20052;-54
2022/09/10 10:13:36;;;;;;;2.42;0.10;;;25.70;50.90;;;;;;5049860;28;20045;-54
2022/09/10 10:16:15;;;;;;;3.00;0.30;;;25.70;50.90;;;;;;5049784;28;20140;-56
2022/09/10 10:18:43;;;;;;;3.47;0.30;;;25.60;50.90;;;;;;5049634;28;20049;-54
2022/09/10 10:21:18;;;;;;;1.70;0.30;;;25.60;50.90;;;;;;5049359;28;20037;-53
2022/09/10 10:23:46;;;;;;;1.13;0.10;;;25.70;51.00;;;;;;5042080;28;20059;-55
2022/09/10 10:26:21;;;;;;;2.17;0.55;;;25.60;50.90;;;;;;5043049;28;20123;-57
2022/09/10 10:28:51;;;;;;;4.85;0.60;;;25.70;51.00;;;;;;5049504;28;20048;-55
2022/09/10 10:31:19;;;;;;;0.95;0.25;;;25.70;51.00;;;;;;5049120;28;20044;-55
2022/09/10 10:33:57;;;;;;;4.75;0.20;;;25.60;50.90;;;;;;5049548;28;20148;-55
2022/09/10 10:36:32;;;;;;;3.95;0.75;;;25.70;51.00;;;;;;5049077;28;20053;-52
2022/09/10 10:39:06;;;;;;;3.45;0.77;;;25.60;51.00;;;;;;5049677;28;20037;-51
2022/09/10 10:41:49;;;;;;;2.47;0.50;;;25.70;51.10;;;;;;5050329;28;20049;-53
2022/09/10 10:44:31;;;;;;;0.85;0.65;;;25.60;51.00;;;;;;5042541;28;20037;-55
2022/09/10 10:47:14;;;;;;;2.60;0.40;;;25.70;51.10;;;;;;5044459;28;20175;-54
2022/09/10 10:49:54;;;;;;;1.38;0.77;;;25.60;51.20;;;;;;5050910;28;20091;-56
2022/09/10 10:52:32;;;;;;;2.50;0.20;;;25.60;51.40;;;;;;5048498;28;20055;-55
2022/09/10 10:55:16;;;;;;;0.52;0.10;;;25.60;51.40;;;;;;5042678;28;20033;-57
2022/09/10 10:57:58;;;;;;;3.47;0.38;;;25.60;51.40;;;;;;5048798;28;20111;-53
2022/09/10 11:00:28;;;;;;;0.93;0.10;;;25.70;51.60;;;;;;5048229;28;20041;-56
2022/09/10 11:03:03;;;;;;;1.13;0.30;;;25.60;51.70;;;;;;5047010;28;20048;-56
2022/09/10 11:05:37;;;;;;;2.70;0.30;;;25.70;51.80;;;;;;5047959;28;20186;-55
2022/09/10 11:08:13;;;;;;;1.48;0.20;;;25.60;51.70;;;;;;5042236;28;20052;-54
2022/09/10 11:10:46;;;;;;;3.63;1.40;;;25.70;51.80;;;;;;5043458;28;20041;-53
2022/09/10 11:13:19;;;;;;;1.55;0.30;;;25.60;51.90;;;;;;5048530;28;20041;-54
2022/09/10 11:15:52;;;;;;;2.00;0.40;;;25.70;52.00;;;;;;5030303;28;20116;-54
2022/09/10 11:18:26;;;;;;;0.30;0.10;;;25.70;52.00;;;;;;5048335;28;20047;-55
2022/09/10 11:21:00;;;;;;;3.70;0.10;;;25.70;52.00;;;;;;5047900;28;20634;-52
2022/09/10 11:23:31;;;;;;;0.55;0.30;;;25.70;52.00;;;;;;5048349;28;20146;-53
2022/09/10 11:26:04;;;;;;;1.65;0.20;;;25.70;52.00;;;;;;5030476;28;20102;-57
2022/09/10 11:28:36;;;;;;;0.63;0.10;;;25.70;51.90;;;;;;5050044;28;20140;-55
2022/09/10 11:31:10;;;;;;;3.05;0.20;;;25.80;51.90;;;;;;5041840;28;20525;-54
2022/09/10 11:33:46;;;;;;;1.75;0.20;;;25.80;51.80;;;;;;5050106;28;20044;-56
2022/09/10 11:36:23;;;;;;;1.10;0.10;;;25.80;51.70;;;;;;5047582;28;20527;-53
2022/09/10 11:39:01;;;;;;;2.58;0.90;;;25.90;51.60;;;;;;5048300;28;20498;-53
2022/09/10 11:41:31;;;;;;;1.90;1.05;;;25.80;51.40;;;;;;5047939;28;20513;-58
2022/09/10 11:44:11;;;;;;;1.17;0.17;;;25.90;51.50;;;;;;5047938;28;20047;-56
2022/09/10 11:46:43;;;;;;;0.50;0.10;;;25.90;51.40;;;;;;5023823;28;20055;-52
2022/09/10 11:49:16;;;;;;;2.65;0.10;;;25.90;51.40;;;;;;5041952;28;20041;-56
2022/09/10 11:51:46;;;;;;;1.88;0.28;;;25.90;51.40;;;;;;5047779;28;20041;-54
2022/09/10 11:54:16;;;;;;;0.68;0.20;;;26.00;51.40;;;;;;5047669;28;20102;-54
2022/09/10 11:56:52;;;;;;;1.00;0.40;;;26.00;51.30;;;;;;5047079;28;20521;-55
2022/09/10 11:59:54;;;;;;;1.55;0.35;;;26.10;51.40;;;;;;5047686;28;20047;-53
2022/09/10 12:02:56;;;;;;;3.13;0.25;;;26.10;51.20;;;;;;5042953;28;20041;-58
2022/09/10 12:05:29;;;;;;;0.20;0.20;;;26.20;51.30;;;;;;5047544;28;20056;-56
2022/09/10 12:08:09;;;;;;;3.20;0.22;;;26.20;51.30;;;;;;5047776;28;20136;-54
2022/09/10 12:10:46;;;;;;;0.85;0.20;;;26.20;51.30;;;;;;5042475;28;20120;-54
2022/09/10 12:13:14;;;;;;;1.27;0.20;;;26.20;51.20;;;;;;5045825;28;20111;-54
2022/09/10 12:15:51;;;;;;;0.75;0.20;;;26.30;51.20;;;;;;5047889;28;20048;-53
2022/09/10 12:18:23;;;;;;;1.85;0.70;;;26.30;51.10;;;;;;5047096;28;20041;-51
2022/09/10 12:20:53;;;;;;;4.65;0.10;;;26.30;51.10;;;;;;5025190;28;20047;-56
2022/09/10 12:23:28;;;;;;;0.65;0.10;;;26.30;51.00;;;;;;5045831;28;20053;-56
2022/09/10 12:25:59;;;;;;;0.80;0.20;;;26.40;51.00;;;;;;5047848;28;20095;-54
2022/09/10 12:28:59;;;;;;;0.32;0.10;;;26.40;50.90;;;;;;5047151;28;20122;-53
2022/09/10 12:31:27;;;;;;;1.90;0.35;;;26.40;50.80;;;;;;5042547;28;20490;-56
2022/09/10 12:34:19;;;;;;;1.10;0.30;;;26.40;50.80;;;;;;5047486;28;20124;-55
2022/09/10 12:37:21;;;;;;;0.60;0.10;;;26.40;50.60;;;;;;5047495;28;20464;-51
2022/09/10 12:39:49;;;;;;;0.22;0.10;;;26.50;50.60;;;;;;5054602;28;20068;-54
2022/09/10 12:42:35;;;;;;;1.52;0.17;;;26.40;50.60;;;;;;5048382;28;20040;-57
2022/09/10 12:45:03;;;;;;;0.68;0.10;;;26.50;50.60;;;;;;5043524;28;20044;-55
2022/09/10 12:47:49;;;;;;;0.20;0.20;;;26.50;50.60;;;;;;5051444;28;20091;-57
2022/09/10 12:50:52;;;;;;;3.50;0.63;;;26.50;51.00;;;;;;5048590;28;20583;-52
2022/09/10 12:53:47;;;;;;;1.27;0.10;;;26.60;50.40;;;;;;5056371;28;20058;-50
2022/09/10 12:56:43;;;;;;;1.55;0.10;;;26.60;50.40;;;;;;5051940;28;20069;-56
2022/09/10 12:59:32;;;;;;;1.53;0.10;;;26.60;50.30;;;;;;5020320;28;20052;-54
2022/09/10 13:01:59;;;;;;;0.30;0.30;;;26.60;50.30;;;;;;5050967;28;20086;-55
2022/09/10 13:04:28;;;;;;;0.55;0.10;;;26.60;50.20;;;;;;5050793;28;20044;-54
2022/09/10 13:07:00;;;;;;;0.55;0.20;;;26.60;50.10;;;;;;5056727;28;20114;-56
2022/09/10 13:09:31;;;;;;;0.55;0.10;;;26.60;50.10;;;;;;5050917;28;20044;-50
2022/09/10 13:12:02;;;;;;;0.45;0.30;;;26.70;50.10;;;;;;5055477;28;20044;-55